Terminal Aerodrome Forecast
Issued by NWS Boston, MA

Home | Current Version | Previous Version | Text Only | Print | Product List | Glossary On
Versions: 1 2 3 4 5 6 7 8 9 10 11 12 13 14 15 16 17 18 19 20 21 22 23 24 25 26 27 28 29 30 31 32 33 34 35 36 37 38 39 40 41 42 43 44 45 46 47 48 49 50
782
FTUS41 KBOX 241737 AAC
TAFPVD
TAF AMD
KPVD 241737Z 2418/2518 28014G22KT P6SM FEW050 FEW250
     FM250000 31010G17KT P6SM FEW250
     FM250200 31009KT P6SM FEW250
     FM251400 34005KT P6SM FEW080
     FM251600 30006KT P6SM FEW080
     FM251700 22006KT P6SM FEW080=

USA.gov is the U.S. government's official web portal to all federal, state and local government web resources and services.